sensor_id;sensor_type;location;lat;lon;timestamp;temperature;humidity
16970;DHT22;8601;48.718;8.992;2022-09-16T00:01:00;13.30;99.90
16970;DHT22;8601;48.718;8.992;2022-09-16T00:03:27;13.30;99.90
16970;DHT22;8601;48.718;8.992;2022-09-16T00:05:54;13.20;99.90
16970;DHT22;8601;48.718;8.992;2022-09-16T00:08:21;13.30;99.90
16970;DHT22;8601;48.718;8.992;2022-09-16T00:10:49;13.30;99.90
16970;DHT22;8601;48.718;8.992;2022-09-16T00:13:16;13.40;99.90
16970;DHT22;8601;48.718;8.992;2022-09-16T00:15:46;13.40;99.90
16970;DHT22;8601;48.718;8.992;2022-09-16T00:18:15;13.40;99.90
16970;DHT22;8601;48.718;8.992;2022-09-16T00:20:43;13.40;99.90
16970;DHT22;8601;48.718;8.992;2022-09-16T00:23:10;13.30;99.90
16970;DHT22;8601;48.718;8.992;2022-09-16T00:25:37;13.30;99.90
16970;DHT22;8601;48.718;8.992;2022-09-16T00:28:04;13.20;99.90
16970;DHT22;8601;48.718;8.992;2022-09-16T00:30:31;13.20;99.90
16970;DHT22;8601;48.718;8.992;2022-09-16T00:32:59;13.20;99.90
16970;DHT22;8601;48.718;8.992;2022-09-16T00:35:26;13.30;99.90
16970;DHT22;8601;48.718;8.992;2022-09-16T00:37:53;13.30;99.90
16970;DHT22;8601;48.718;8.992;2022-09-16T00:40:27;13.30;99.90
16970;DHT22;8601;48.718;8.992;2022-09-16T00:42:54;13.20;99.90
16970;DHT22;8601;48.718;8.992;2022-09-16T00:45:23;13.00;99.90
16970;DHT22;8601;48.718;8.992;2022-09-16T00:47:54;13.10;99.90
16970;DHT22;8601;48.718;8.992;2022-09-16T00:50:30;13.10;99.90
16970;DHT22;8601;48.718;8.992;2022-09-16T00:53:03;13.10;99.90
16970;DHT22;8601;48.718;8.992;2022-09-16T00:55:33;13.10;99.90
16970;DHT22;8601;48.718;8.992;2022-09-16T00:58:07;13.10;99.90
16970;DHT22;8601;48.718;8.992;2022-09-16T01:00:36;13.20;99.90
16970;DHT22;8601;48.718;8.992;2022-09-16T01:03:05;13.10;99.90
16970;DHT22;8601;48.718;8.992;2022-09-16T01:05:35;13.10;99.90
16970;DHT22;8601;48.718;8.992;2022-09-16T01:08:03;13.10;99.90
16970;DHT22;8601;48.718;8.992;2022-09-16T01:10:30;13.10;99.90
16970;DHT22;8601;48.718;8.992;2022-09-16T01:13:02;13.10;99.90
16970;DHT22;8601;48.718;8.992;2022-09-16T01:15:34;13.20;99.90
16970;DHT22;8601;48.718;8.992;2022-09-16T01:18:11;13.20;99.90
16970;DHT22;8601;48.718;8.992;2022-09-16T01:20:57;13.30;99.90
16970;DHT22;8601;48.718;8.992;2022-09-16T01:26:54;13.30;99.90
16970;DHT22;8601;48.718;8.992;2022-09-16T01:32:29;13.30;99.90
16970;DHT22;8601;48.718;8.992;2022-09-16T01:35:06;13.20;99.90
16970;DHT22;8601;48.718;8.992;2022-09-16T01:37:41;13.20;99.90
16970;DHT22;8601;48.718;8.992;2022-09-16T01:40:18;13.10;99.90
16970;DHT22;8601;48.718;8.992;2022-09-16T01:42:53;13.00;99.90
16970;DHT22;8601;48.718;8.992;2022-09-16T01:45:29;12.90;99.90
16970;DHT22;8601;48.718;8.992;2022-09-16T01:48:09;12.80;99.90
16970;DHT22;8601;48.718;8.992;2022-09-16T01:50:42;12.80;99.90
16970;DHT22;8601;48.718;8.992;2022-09-16T01:53:13;12.90;99.90
16970;DHT22;8601;48.718;8.992;2022-09-16T01:55:47;12.90;99.90
16970;DHT22;8601;48.718;8.992;2022-09-16T01:58:20;13.00;99.90
16970;DHT22;8601;48.718;8.992;2022-09-16T02:01:01;13.00;99.90
16970;DHT22;8601;48.718;8.992;2022-09-16T02:03:33;12.90;99.90
16970;DHT22;8601;48.718;8.992;2022-09-16T02:06:04;13.00;99.90
16970;DHT22;8601;48.718;8.992;2022-09-16T02:08:38;13.00;99.90
16970;DHT22;8601;48.718;8.992;2022-09-16T02:11:08;13.10;99.90
16970;DHT22;8601;48.718;8.992;2022-09-16T02:13:46;13.00;99.90
16970;DHT22;8601;48.718;8.992;2022-09-16T02:16:16;13.10;99.90
16970;DHT22;8601;48.718;8.992;2022-09-16T02:18:50;13.20;99.90
16970;DHT22;8601;48.718;8.992;2022-09-16T02:21:20;13.10;99.90
16970;DHT22;8601;48.718;8.992;2022-09-16T02:23:50;13.10;99.90
16970;DHT22;8601;48.718;8.992;2022-09-16T02:26:23;13.10;99.90
16970;DHT22;8601;48.718;8.992;2022-09-16T02:28:53;13.10;99.90
16970;DHT22;8601;48.718;8.992;2022-09-16T02:31:24;13.10;99.90
16970;DHT22;8601;48.718;8.992;2022-09-16T02:34:13;13.10;99.90
16970;DHT22;8601;48.718;8.992;2022-09-16T02:36:44;13.10;99.90
16970;DHT22;8601;48.718;8.992;2022-09-16T02:39:18;13.00;99.90
16970;DHT22;8601;48.718;8.992;2022-09-16T02:41:45;13.00;99.90
16970;DHT22;8601;48.718;8.992;2022-09-16T02:44:13;13.00;99.90
16970;DHT22;8601;48.718;8.992;2022-09-16T02:46:57;12.90;99.90
16970;DHT22;8601;48.718;8.992;2022-09-16T02:49:35;13.00;99.90
16970;DHT22;8601;48.718;8.992;2022-09-16T02:52:12;13.00;99.90
16970;DHT22;8601;48.718;8.992;2022-09-16T02:54:46;12.90;99.90
16970;DHT22;8601;48.718;8.992;2022-09-16T02:57:15;12.90;99.90
16970;DHT22;8601;48.718;8.992;2022-09-16T02:59:42;12.90;99.90
16970;DHT22;8601;48.718;8.992;2022-09-16T03:02:10;12.90;99.90
16970;DHT22;8601;48.718;8.992;2022-09-16T03:04:38;12.90;99.90
16970;DHT22;8601;48.718;8.992;2022-09-16T03:07:06;13.00;99.90
16970;DHT22;8601;48.718;8.992;2022-09-16T03:09:36;13.00;99.90
16970;DHT22;8601;48.718;8.992;2022-09-16T03:12:12;13.00;99.90
16970;DHT22;8601;48.718;8.992;2022-09-16T03:15:07;13.00;99.90
16970;DHT22;8601;48.718;8.992;2022-09-16T03:17:48;13.10;99.90
16970;DHT22;8601;48.718;8.992;2022-09-16T03:20:24;13.10;99.90
16970;DHT22;8601;48.718;8.992;2022-09-16T03:22:57;13.00;99.90
16970;DHT22;8601;48.718;8.992;2022-09-16T03:25:35;13.10;99.90
16970;DHT22;8601;48.718;8.992;2022-09-16T03:28:15;13.20;99.90
16970;DHT22;8601;48.718;8.992;2022-09-16T03:30:50;13.20;99.90
16970;DHT22;8601;48.718;8.992;2022-09-16T03:33:24;13.20;99.90
16970;DHT22;8601;48.718;8.992;2022-09-16T03:35:57;13.20;99.90
16970;DHT22;8601;48.718;8.992;2022-09-16T03:38:26;13.10;99.90
16970;DHT22;8601;48.718;8.992;2022-09-16T03:40:54;13.10;99.90
16970;DHT22;8601;48.718;8.992;2022-09-16T03:43:21;13.00;99.90
16970;DHT22;8601;48.718;8.992;2022-09-16T03:45:48;13.00;99.90
16970;DHT22;8601;48.718;8.992;2022-09-16T03:48:16;13.00;99.90
16970;DHT22;8601;48.718;8.992;2022-09-16T03:50:43;13.00;99.90
16970;DHT22;8601;48.718;8.992;2022-09-16T03:53:11;12.80;99.90
16970;DHT22;8601;48.718;8.992;2022-09-16T03:55:38;12.70;99.90
16970;DHT22;8601;48.718;8.992;2022-09-16T03:58:05;12.80;99.90
16970;DHT22;8601;48.718;8.992;2022-09-16T04:00:32;12.70;99.90
16970;DHT22;8601;48.718;8.992;2022-09-16T04:02:59;12.70;99.90
16970;DHT22;8601;48.718;8.992;2022-09-16T04:05:27;12.70;99.90
16970;DHT22;8601;48.718;8.992;2022-09-16T04:07:54;12.80;99.90
16970;DHT22;8601;48.718;8.992;2022-09-16T04:10:22;12.90;99.90
16970;DHT22;8601;48.718;8.992;2022-09-16T04:12:49;12.90;99.90
16970;DHT22;8601;48.718;8.992;2022-09-16T04:15:16;12.90;99.90
16970;DHT22;8601;48.718;8.992;2022-09-16T04:17:43;12.90;99.90
16970;DHT22;8601;48.718;8.992;2022-09-16T04:20:10;12.90;99.90
16970;DHT22;8601;48.718;8.992;2022-09-16T04:22:37;12.90;99.90
16970;DHT22;8601;48.718;8.992;2022-09-16T04:25:17;12.90;99.90
16970;DHT22;8601;48.718;8.992;2022-09-16T04:27:46;12.90;99.90
16970;DHT22;8601;48.718;8.992;2022-09-16T04:30:13;12.90;99.90
16970;DHT22;8601;48.718;8.992;2022-09-16T04:32:40;12.90;99.90
16970;DHT22;8601;48.718;8.992;2022-09-16T04:35:08;12.90;99.90
16970;DHT22;8601;48.718;8.992;2022-09-16T04:37:35;13.00;99.90
16970;DHT22;8601;48.718;8.992;2022-09-16T04:40:07;12.90;99.90
16970;DHT22;8601;48.718;8.992;2022-09-16T04:42:35;13.00;99.90
16970;DHT22;8601;48.718;8.992;2022-09-16T04:45:04;12.90;99.90
16970;DHT22;8601;48.718;8.992;2022-09-16T04:47:32;12.90;99.90
16970;DHT22;8601;48.718;8.992;2022-09-16T04:49:58;12.80;99.90
16970;DHT22;8601;48.718;8.992;2022-09-16T04:52:25;12.70;99.90
16970;DHT22;8601;48.718;8.992;2022-09-16T04:54:52;12.70;99.90
16970;DHT22;8601;48.718;8.992;2022-09-16T04:57:19;12.70;99.90
16970;DHT22;8601;48.718;8.992;2022-09-16T04:59:46;12.60;99.90
16970;DHT22;8601;48.718;8.992;2022-09-16T05:02:14;12.60;99.90
16970;DHT22;8601;48.718;8.992;2022-09-16T05:04:49;12.50;99.90
16970;DHT22;8601;48.718;8.992;2022-09-16T05:07:16;12.60;99.90
16970;DHT22;8601;48.718;8.992;2022-09-16T05:09:43;12.60;99.90
16970;DHT22;8601;48.718;8.992;2022-09-16T05:12:10;12.60;99.90
16970;DHT22;8601;48.718;8.992;2022-09-16T05:14:39;12.60;99.90
16970;DHT22;8601;48.718;8.992;2022-09-16T05:17:06;12.50;99.90
16970;DHT22;8601;48.718;8.992;2022-09-16T05:19:34;12.40;99.90
16970;DHT22;8601;48.718;8.992;2022-09-16T05:22:01;12.60;99.90
16970;DHT22;8601;48.718;8.992;2022-09-16T05:24:33;12.70;99.90
16970;DHT22;8601;48.718;8.992;2022-09-16T05:27:01;13.50;99.90
16970;DHT22;8601;48.718;8.992;2022-09-16T05:29:28;13.30;99.90
16970;DHT22;8601;48.718;8.992;2022-09-16T05:31:55;13.10;99.90
16970;DHT22;8601;48.718;8.992;2022-09-16T05:34:22;13.00;99.90
16970;DHT22;8601;48.718;8.992;2022-09-16T05:36:54;12.80;99.90
16970;DHT22;8601;48.718;8.992;2022-09-16T05:39:22;12.80;99.90
16970;DHT22;8601;48.718;8.992;2022-09-16T05:41:52;12.80;99.90
16970;DHT22;8601;48.718;8.992;2022-09-16T05:44:19;12.70;99.90
16970;DHT22;8601;48.718;8.992;2022-09-16T05:46:46;12.70;99.90
16970;DHT22;8601;48.718;8.992;2022-09-16T05:49:17;12.60;99.90
16970;DHT22;8601;48.718;8.992;2022-09-16T05:51:45;12.60;99.90
16970;DHT22;8601;48.718;8.992;2022-09-16T05:54:14;12.60;99.90
16970;DHT22;8601;48.718;8.992;2022-09-16T05:56:43;12.70;99.90
16970;DHT22;8601;48.718;8.992;2022-09-16T05:59:10;12.60;99.90
16970;DHT22;8601;48.718;8.992;2022-09-16T06:01:38;12.60;99.90
16970;DHT22;8601;48.718;8.992;2022-09-16T06:04:07;12.60;99.90
16970;DHT22;8601;48.718;8.992;2022-09-16T06:06:36;12.60;99.90
16970;DHT22;8601;48.718;8.992;2022-09-16T06:09:05;12.50;99.90
16970;DHT22;8601;48.718;8.992;2022-09-16T06:11:35;12.40;99.90
16970;DHT22;8601;48.718;8.992;2022-09-16T06:14:03;12.50;99.90
16970;DHT22;8601;48.718;8.992;2022-09-16T06:16:31;12.50;99.90
16970;DHT22;8601;48.718;8.992;2022-09-16T06:18:59;12.50;99.90
16970;DHT22;8601;48.718;8.992;2022-09-16T06:21:26;12.60;99.90
16970;DHT22;8601;48.718;8.992;2022-09-16T06:23:53;12.60;99.90
16970;DHT22;8601;48.718;8.992;2022-09-16T06:26:40;12.60;99.90
16970;DHT22;8601;48.718;8.992;2022-09-16T06:29:08;12.60;99.90
16970;DHT22;8601;48.718;8.992;2022-09-16T06:31:36;12.40;99.90
16970;DHT22;8601;48.718;8.992;2022-09-16T06:34:03;12.50;99.90
16970;DHT22;8601;48.718;8.992;2022-09-16T06:36:32;12.50;99.90
16970;DHT22;8601;48.718;8.992;2022-09-16T06:38:59;12.60;99.90
16970;DHT22;8601;48.718;8.992;2022-09-16T06:41:44;12.50;99.90
16970;DHT22;8601;48.718;8.992;2022-09-16T06:44:11;12.60;99.90
16970;DHT22;8601;48.718;8.992;2022-09-16T06:46:38;12.60;99.90
16970;DHT22;8601;48.718;8.992;2022-09-16T06:49:05;12.50;99.90
16970;DHT22;8601;48.718;8.992;2022-09-16T06:52:02;12.50;99.90
16970;DHT22;8601;48.718;8.992;2022-09-16T06:54:29;12.60;99.90
16970;DHT22;8601;48.718;8.992;2022-09-16T06:56:57;12.50;99.90
16970;DHT22;8601;48.718;8.992;2022-09-16T06:59:25;12.40;99.90
16970;DHT22;8601;48.718;8.992;2022-09-16T07:01:52;12.50;99.90
16970;DHT22;8601;48.718;8.992;2022-09-16T07:04:18;12.50;99.90
16970;DHT22;8601;48.718;8.992;2022-09-16T07:06:45;12.40;99.90
16970;DHT22;8601;48.718;8.992;2022-09-16T07:09:14;12.50;99.90
16970;DHT22;8601;48.718;8.992;2022-09-16T07:11:41;12.40;99.90
16970;DHT22;8601;48.718;8.992;2022-09-16T07:14:27;12.50;99.90
16970;DHT22;8601;48.718;8.992;2022-09-16T07:16:54;12.40;99.90
16970;DHT22;8601;48.718;8.992;2022-09-16T07:19:21;12.40;99.90
16970;DHT22;8601;48.718;8.992;2022-09-16T07:21:47;12.20;99.90
16970;DHT22;8601;48.718;8.992;2022-09-16T07:24:14;12.20;99.90
16970;DHT22;8601;48.718;8.992;2022-09-16T07:26:44;12.20;99.90
16970;DHT22;8601;48.718;8.992;2022-09-16T07:29:12;12.20;99.90
16970;DHT22;8601;48.718;8.992;2022-09-16T07:32:03;12.20;99.90
16970;DHT22;8601;48.718;8.992;2022-09-16T07:34:30;12.20;99.90
16970;DHT22;8601;48.718;8.992;2022-09-16T07:36:58;12.20;99.90
16970;DHT22;8601;48.718;8.992;2022-09-16T07:39:25;12.20;99.90
16970;DHT22;8601;48.718;8.992;2022-09-16T07:41:55;12.20;99.90
16970;DHT22;8601;48.718;8.992;2022-09-16T07:44:22;12.20;99.90
16970;DHT22;8601;48.718;8.992;2022-09-16T07:46:49;12.20;99.90
16970;DHT22;8601;48.718;8.992;2022-09-16T07:49:18;12.30;99.90
16970;DHT22;8601;48.718;8.992;2022-09-16T07:51:45;12.40;99.90
16970;DHT22;8601;48.718;8.992;2022-09-16T07:54:14;12.40;99.90
16970;DHT22;8601;48.718;8.992;2022-09-16T07:56:42;12.40;99.90
16970;DHT22;8601;48.718;8.992;2022-09-16T07:59:12;12.30;99.90
16970;DHT22;8601;48.718;8.992;2022-09-16T08:01:39;12.20;99.90
16970;DHT22;8601;48.718;8.992;2022-09-16T08:04:06;12.30;99.90
16970;DHT22;8601;48.718;8.992;2022-09-16T08:06:37;12.20;99.90
16970;DHT22;8601;48.718;8.992;2022-09-16T08:09:04;12.30;99.90
16970;DHT22;8601;48.718;8.992;2022-09-16T08:11:37;12.30;99.90
16970;DHT22;8601;48.718;8.992;2022-09-16T08:14:04;12.40;99.90
16970;DHT22;8601;48.718;8.992;2022-09-16T08:16:31;12.50;99.90
16970;DHT22;8601;48.718;8.992;2022-09-16T08:18:58;12.50;99.90
16970;DHT22;8601;48.718;8.992;2022-09-16T08:21:27;12.60;99.90
16970;DHT22;8601;48.718;8.992;2022-09-16T08:23:56;12.70;99.90
16970;DHT22;8601;48.718;8.992;2022-09-16T08:26:23;12.70;99.90
16970;DHT22;8601;48.718;8.992;2022-09-16T08:28:50;12.80;99.90
16970;DHT22;8601;48.718;8.992;2022-09-16T08:31:36;12.80;99.90
16970;DHT22;8601;48.718;8.992;2022-09-16T08:34:03;13.00;99.90
16970;DHT22;8601;48.718;8.992;2022-09-16T08:36:30;12.90;99.90
16970;DHT22;8601;48.718;8.992;2022-09-16T08:38:59;12.80;99.90
16970;DHT22;8601;48.718;8.992;2022-09-16T08:41:48;12.80;99.90
16970;DHT22;8601;48.718;8.992;2022-09-16T08:44:22;12.80;99.90
16970;DHT22;8601;48.718;8.992;2022-09-16T08:46:55;12.80;99.90
16970;DHT22;8601;48.718;8.992;2022-09-16T08:49:30;12.70;99.90
16970;DHT22;8601;48.718;8.992;2022-09-16T08:52:02;12.70;99.90
16970;DHT22;8601;48.718;8.992;2022-09-16T08:54:36;12.70;99.90
16970;DHT22;8601;48.718;8.992;2022-09-16T08:57:05;12.70;99.90
16970;DHT22;8601;48.718;8.992;2022-09-16T08:59:48;12.80;99.90
16970;DHT22;8601;48.718;8.992;2022-09-16T09:02:31;12.80;99.90
16970;DHT22;8601;48.718;8.992;2022-09-16T09:05:04;12.80;99.90
16970;DHT22;8601;48.718;8.992;2022-09-16T09:07:39;12.90;99.90
16970;DHT22;8601;48.718;8.992;2022-09-16T09:10:21;12.90;99.90
16970;DHT22;8601;48.718;8.992;2022-09-16T09:12:55;13.00;99.90
16970;DHT22;8601;48.718;8.992;2022-09-16T09:15:35;13.00;99.90
16970;DHT22;8601;48.718;8.992;2022-09-16T09:18:18;13.00;99.90
16970;DHT22;8601;48.718;8.992;2022-09-16T09:20:53;13.10;99.90
16970;DHT22;8601;48.718;8.992;2022-09-16T09:23:38;13.00;99.90
16970;DHT22;8601;48.718;8.992;2022-09-16T09:26:15;13.00;99.90
16970;DHT22;8601;48.718;8.992;2022-09-16T09:29:12;13.10;99.90
16970;DHT22;8601;48.718;8.992;2022-09-16T09:31:49;13.10;99.90
16970;DHT22;8601;48.718;8.992;2022-09-16T09:34:35;13.10;99.90
16970;DHT22;8601;48.718;8.992;2022-09-16T09:37:18;13.20;99.90
16970;DHT22;8601;48.718;8.992;2022-09-16T09:39:55;13.20;99.90
16970;DHT22;8601;48.718;8.992;2022-09-16T09:42:27;13.20;99.90
16970;DHT22;8601;48.718;8.992;2022-09-16T09:44:58;13.20;99.90
16970;DHT22;8601;48.718;8.992;2022-09-16T09:47:34;13.20;99.90
16970;DHT22;8601;48.718;8.992;2022-09-16T09:50:12;13.20;99.90
16970;DHT22;8601;48.718;8.992;2022-09-16T09:52:44;13.20;99.90
16970;DHT22;8601;48.718;8.992;2022-09-16T09:55:15;13.10;99.90
16970;DHT22;8601;48.718;8.992;2022-09-16T09:57:56;13.10;99.90
16970;DHT22;8601;48.718;8.992;2022-09-16T10:00:25;13.00;99.90
16970;DHT22;8601;48.718;8.992;2022-09-16T10:03:01;13.10;99.90
16970;DHT22;8601;48.718;8.992;2022-09-16T10:05:30;13.00;99.90
16970;DHT22;8601;48.718;8.992;2022-09-16T10:08:12;13.10;99.90
16970;DHT22;8601;48.718;8.992;2022-09-16T10:10:48;13.10;99.90
16970;DHT22;8601;48.718;8.992;2022-09-16T10:13:17;13.00;99.90
16970;DHT22;8601;48.718;8.992;2022-09-16T10:15:53;12.90;99.90
16970;DHT22;8601;48.718;8.992;2022-09-16T10:18:24;12.90;99.90
16970;DHT22;8601;48.718;8.992;2022-09-16T10:20:59;12.90;99.90
16970;DHT22;8601;48.718;8.992;2022-09-16T10:23:52;13.10;99.90
16970;DHT22;8601;48.718;8.992;2022-09-16T10:26:20;13.10;99.90
16970;DHT22;8601;48.718;8.992;2022-09-16T10:28:59;13.30;99.90
16970;DHT22;8601;48.718;8.992;2022-09-16T10:31:51;13.50;99.90
16970;DHT22;8601;48.718;8.992;2022-09-16T10:34:25;13.50;99.90
16970;DHT22;8601;48.718;8.992;2022-09-16T10:37:04;13.60;99.90
16970;DHT22;8601;48.718;8.992;2022-09-16T10:39:41;13.60;99.90
16970;DHT22;8601;48.718;8.992;2022-09-16T10:42:16;13.50;99.90
16970;DHT22;8601;48.718;8.992;2022-09-16T10:44:45;13.50;99.90
16970;DHT22;8601;48.718;8.992;2022-09-16T10:47:18;13.60;99.90
16970;DHT22;8601;48.718;8.992;2022-09-16T10:49:49;13.50;99.90
16970;DHT22;8601;48.718;8.992;2022-09-16T10:52:19;13.50;99.90
16970;DHT22;8601;48.718;8.992;2022-09-16T10:54:47;13.50;99.90
16970;DHT22;8601;48.718;8.992;2022-09-16T10:57:22;13.70;99.90
16970;DHT22;8601;48.718;8.992;2022-09-16T10:59:58;14.60;99.90
16970;DHT22;8601;48.718;8.992;2022-09-16T11:02:40;14.50;99.90
16970;DHT22;8601;48.718;8.992;2022-09-16T11:05:16;14.10;99.90
16970;DHT22;8601;48.718;8.992;2022-09-16T11:07:49;13.80;99.90
16970;DHT22;8601;48.718;8.992;2022-09-16T11:10:25;13.80;99.90
16970;DHT22;8601;48.718;8.992;2022-09-16T11:13:16;13.80;99.90
16970;DHT22;8601;48.718;8.992;2022-09-16T11:15:59;13.70;99.90
16970;DHT22;8601;48.718;8.992;2022-09-16T11:18:39;13.60;99.90
16970;DHT22;8601;48.718;8.992;2022-09-16T11:21:24;13.50;99.90
16970;DHT22;8601;48.718;8.992;2022-09-16T11:24:18;13.50;99.90
16970;DHT22;8601;48.718;8.992;2022-09-16T11:26:53;13.50;99.90
16970;DHT22;8601;48.718;8.992;2022-09-16T11:29:39;13.40;99.90
16970;DHT22;8601;48.718;8.992;2022-09-16T11:32:16;13.30;99.90
16970;DHT22;8601;48.718;8.992;2022-09-16T11:35:22;13.40;99.90
16970;DHT22;8601;48.718;8.992;2022-09-16T11:37:57;13.50;99.90
16970;DHT22;8601;48.718;8.992;2022-09-16T11:40:32;13.60;99.90
16970;DHT22;8601;48.718;8.992;2022-09-16T11:43:08;13.60;99.90
16970;DHT22;8601;48.718;8.992;2022-09-16T11:45:45;13.70;99.90
16970;DHT22;8601;48.718;8.992;2022-09-16T11:48:30;13.70;99.90
16970;DHT22;8601;48.718;8.992;2022-09-16T11:51:08;13.60;99.90
16970;DHT22;8601;48.718;8.992;2022-09-16T11:53:56;13.70;99.90
16970;DHT22;8601;48.718;8.992;2022-09-16T11:56:32;14.40;99.90
16970;DHT22;8601;48.718;8.992;2022-09-16T11:59:08;14.20;99.90
16970;DHT22;8601;48.718;8.992;2022-09-16T12:01:44;14.20;99.90
16970;DHT22;8601;48.718;8.992;2022-09-16T12:04:17;14.00;99.90
16970;DHT22;8601;48.718;8.992;2022-09-16T12:06:53;14.00;99.90
16970;DHT22;8601;48.718;8.992;2022-09-16T12:09:27;14.80;99.90
16970;DHT22;8601;48.718;8.992;2022-09-16T12:12:05;14.60;99.90
16970;DHT22;8601;48.718;8.992;2022-09-16T12:14:36;14.50;99.90
16970;DHT22;8601;48.718;8.992;2022-09-16T12:17:09;14.30;99.90
16970;DHT22;8601;48.718;8.992;2022-09-16T12:19:43;14.10;99.90
16970;DHT22;8601;48.718;8.992;2022-09-16T12:22:15;14.20;99.90
16970;DHT22;8601;48.718;8.992;2022-09-16T12:24:56;14.30;99.90
16970;DHT22;8601;48.718;8.992;2022-09-16T12:27:39;14.30;99.90
16970;DHT22;8601;48.718;8.992;2022-09-16T12:30:18;14.30;99.90
16970;DHT22;8601;48.718;8.992;2022-09-16T12:32:56;14.20;99.90
16970;DHT22;8601;48.718;8.992;2022-09-16T12:35:30;14.20;99.90
16970;DHT22;8601;48.718;8.992;2022-09-16T12:38:08;14.00;99.90
16970;DHT22;8601;48.718;8.992;2022-09-16T12:40:48;14.00;99.90
16970;DHT22;8601;48.718;8.992;2022-09-16T12:46:38;14.70;99.90
16970;DHT22;8601;48.718;8.992;2022-09-16T12:49:33;14.50;99.90
16970;DHT22;8601;48.718;8.992;2022-09-16T12:52:17;14.30;99.90
16970;DHT22;8601;48.718;8.992;2022-09-16T12:55:13;14.30;99.90
16970;DHT22;8601;48.718;8.992;2022-09-16T13:00:44;14.40;99.90
16970;DHT22;8601;48.718;8.992;2022-09-16T13:03:18;14.50;99.90
16970;DHT22;8601;48.718;8.992;2022-09-16T13:05:48;14.60;99.90
16970;DHT22;8601;48.718;8.992;2022-09-16T13:08:22;14.70;99.90
16970;DHT22;8601;48.718;8.992;2022-09-16T13:10:57;15.10;99.90
16970;DHT22;8601;48.718;8.992;2022-09-16T13:13:34;15.40;99.90
16970;DHT22;8601;48.718;8.992;2022-09-16T13:16:04;15.50;99.90
16970;DHT22;8601;48.718;8.992;2022-09-16T13:18:41;15.60;99.90
16970;DHT22;8601;48.718;8.992;2022-09-16T13:21:20;15.80;99.90
16970;DHT22;8601;48.718;8.992;2022-09-16T13:23:55;15.90;99.90
16970;DHT22;8601;48.718;8.992;2022-09-16T13:26:24;15.80;99.90
16970;DHT22;8601;48.718;8.992;2022-09-16T13:28:51;15.90;99.90
16970;DHT22;8601;48.718;8.992;2022-09-16T13:31:29;15.90;99.90
16970;DHT22;8601;48.718;8.992;2022-09-16T13:34:11;15.90;99.90
16970;DHT22;8601;48.718;8.992;2022-09-16T13:36:40;16.00;99.90
16970;DHT22;8601;48.718;8.992;2022-09-16T13:39:12;16.30;99.90
16970;DHT22;8601;48.718;8.992;2022-09-16T13:41:43;15.90;98.90
16970;DHT22;8601;48.718;8.992;2022-09-16T13:44:39;15.90;99.90
16970;DHT22;8601;48.718;8.992;2022-09-16T13:47:14;16.10;99.90
16970;DHT22;8601;48.718;8.992;2022-09-16T13:49:46;15.90;99.60
16970;DHT22;8601;48.718;8.992;2022-09-16T13:52:18;15.70;99.90
16970;DHT22;8601;48.718;8.992;2022-09-16T13:54:49;15.60;99.90
16970;DHT22;8601;48.718;8.992;2022-09-16T13:57:33;15.60;99.90
16970;DHT22;8601;48.718;8.992;2022-09-16T14:00:10;15.50;99.90
16970;DHT22;8601;48.718;8.992;2022-09-16T14:02:55;15.40;99.90
16970;DHT22;8601;48.718;8.992;2022-09-16T14:05:40;15.40;99.90
16970;DHT22;8601;48.718;8.992;2022-09-16T14:08:16;15.30;99.90
16970;DHT22;8601;48.718;8.992;2022-09-16T14:10:53;15.10;99.90
16970;DHT22;8601;48.718;8.992;2022-09-16T14:13:23;15.20;99.90
16970;DHT22;8601;48.718;8.992;2022-09-16T14:15:58;15.50;99.90
16970;DHT22;8601;48.718;8.992;2022-09-16T14:18:28;15.90;99.90
16970;DHT22;8601;48.718;8.992;2022-09-16T14:21:00;16.30;99.90
16970;DHT22;8601;48.718;8.992;2022-09-16T14:23:29;16.40;98.50
16970;DHT22;8601;48.718;8.992;2022-09-16T14:26:08;16.30;98.70
16970;DHT22;8601;48.718;8.992;2022-09-16T14:28:36;16.10;99.30
16970;DHT22;8601;48.718;8.992;2022-09-16T14:31:08;15.90;98.60
16970;DHT22;8601;48.718;8.992;2022-09-16T14:33:39;15.90;99.30
16970;DHT22;8601;48.718;8.992;2022-09-16T14:36:10;15.60;98.70
16970;DHT22;8601;48.718;8.992;2022-09-16T14:38:46;15.50;99.20
16970;DHT22;8601;48.718;8.992;2022-09-16T14:41:22;15.50;99.60
16970;DHT22;8601;48.718;8.992;2022-09-16T14:43:50;15.30;99.50
16970;DHT22;8601;48.718;8.992;2022-09-16T14:46:18;15.40;99.70
16970;DHT22;8601;48.718;8.992;2022-09-16T14:48:45;15.30;98.80
16970;DHT22;8601;48.718;8.992;2022-09-16T14:51:18;15.40;99.80
16970;DHT22;8601;48.718;8.992;2022-09-16T14:53:53;15.40;99.30
16970;DHT22;8601;48.718;8.992;2022-09-16T14:56:23;15.40;98.40
16970;DHT22;8601;48.718;8.992;2022-09-16T14:58:51;15.50;98.70
16970;DHT22;8601;48.718;8.992;2022-09-16T15:01:22;15.50;97.70
16970;DHT22;8601;48.718;8.992;2022-09-16T15:03:54;15.80;97.80
16970;DHT22;8601;48.718;8.992;2022-09-16T15:06:25;15.90;97.10
16970;DHT22;8601;48.718;8.992;2022-09-16T15:08:56;16.10;98.70
16970;DHT22;8601;48.718;8.992;2022-09-16T15:11:28;16.20;97.90
16970;DHT22;8601;48.718;8.992;2022-09-16T15:13:57;16.20;96.40
16970;DHT22;8601;48.718;8.992;2022-09-16T15:16:25;16.30;96.10
16970;DHT22;8601;48.718;8.992;2022-09-16T15:18:56;16.10;95.60
16970;DHT22;8601;48.718;8.992;2022-09-16T15:21:32;16.00;96.40
16970;DHT22;8601;48.718;8.992;2022-09-16T15:24:02;15.80;95.90
16970;DHT22;8601;48.718;8.992;2022-09-16T15:26:39;15.60;96.40
16970;DHT22;8601;48.718;8.992;2022-09-16T15:29:24;15.50;95.90
16970;DHT22;8601;48.718;8.992;2022-09-16T15:31:53;15.40;96.40
16970;DHT22;8601;48.718;8.992;2022-09-16T15:34:22;15.20;97.30
16970;DHT22;8601;48.718;8.992;2022-09-16T15:36:50;15.20;97.20
16970;DHT22;8601;48.718;8.992;2022-09-16T15:39:22;15.30;96.20
16970;DHT22;8601;48.718;8.992;2022-09-16T15:42:07;15.20;96.20
16970;DHT22;8601;48.718;8.992;2022-09-16T15:44:36;15.30;96.70
16970;DHT22;8601;48.718;8.992;2022-09-16T15:47:04;15.20;96.20
16970;DHT22;8601;48.718;8.992;2022-09-16T15:49:34;15.20;96.10
16970;DHT22;8601;48.718;8.992;2022-09-16T15:52:09;15.40;98.30
16970;DHT22;8601;48.718;8.992;2022-09-16T15:54:44;15.30;96.80
16970;DHT22;8601;48.718;8.992;2022-09-16T15:57:22;15.00;96.10
16970;DHT22;8601;48.718;8.992;2022-09-16T15:59:57;14.80;96.70
16970;DHT22;8601;48.718;8.992;2022-09-16T16:02:38;14.80;97.40
16970;DHT22;8601;48.718;8.992;2022-09-16T16:05:10;14.70;97.20
16970;DHT22;8601;48.718;8.992;2022-09-16T16:07:40;14.70;97.70
16970;DHT22;8601;48.718;8.992;2022-09-16T16:10:13;14.80;96.50
16970;DHT22;8601;48.718;8.992;2022-09-16T16:12:43;14.70;97.40
16970;DHT22;8601;48.718;8.992;2022-09-16T16:15:12;14.70;97.30
16970;DHT22;8601;48.718;8.992;2022-09-16T16:17:40;14.70;97.40
16970;DHT22;8601;48.718;8.992;2022-09-16T16:20:08;14.60;97.90
16970;DHT22;8601;48.718;8.992;2022-09-16T16:22:36;14.60;97.70
16970;DHT22;8601;48.718;8.992;2022-09-16T16:25:04;14.50;98.90
16970;DHT22;8601;48.718;8.992;2022-09-16T16:27:32;14.50;97.70
16970;DHT22;8601;48.718;8.992;2022-09-16T16:30:01;14.50;97.90
16970;DHT22;8601;48.718;8.992;2022-09-16T16:32:41;14.50;98.30